createdAt,value
2022-11-24T00:01:30.089Z,99941.27
2022-11-24T00:04:03.088Z,99946.81
2022-11-24T00:06:34.049Z,99942.81
2022-11-24T00:09:04.637Z,99956.92
2022-11-24T00:11:36.039Z,99958.88
2022-11-24T00:14:05.921Z,99958.19
2022-11-24T00:16:37.385Z,99958.67
2022-11-24T00:19:12.753Z,99960.54
2022-11-24T00:21:43.720Z,99963.12
2022-11-24T00:24:12.237Z,99968.85
2022-11-24T00:26:40.159Z,99974.11
2022-11-24T00:29:11.003Z,99983.55
2022-11-24T00:31:42.395Z,99984.34
2022-11-24T00:34:13.734Z,99982.36
2022-11-24T00:36:42.092Z,99985.13
2022-11-24T00:39:15.571Z,99988.22
2022-11-24T00:41:43.793Z,99990.30
2022-11-24T00:44:11.702Z,99991.52
2022-11-24T00:46:40.141Z,99994.70
2022-11-24T00:49:08.358Z,99993.59
2022-11-24T00:51:36.338Z,99992.88
2022-11-24T00:54:04.324Z,99985.77
2022-11-24T00:56:32.196Z,99982.64
2022-11-24T00:59:00.536Z,99979.41
2022-11-24T01:01:31.227Z,99976.04
2022-11-24T01:04:03.917Z,99980.58
2022-11-24T01:06:32.740Z,99985.36
2022-11-24T01:09:00.765Z,99989.06
2022-11-24T01:11:52.145Z,99992.31
2022-11-24T01:14:23.220Z,99990.48
2022-11-24T01:16:51.577Z,99993.35
2022-11-24T01:19:20.223Z,99993.59
2022-11-24T01:21:48.321Z,99993.88
2022-11-24T01:24:16.613Z,99994.66
2022-11-24T01:26:44.685Z,99991.88
2022-11-24T01:29:12.985Z,99991.30
2022-11-24T01:31:40.930Z,99986.77
2022-11-24T01:34:08.862Z,99995.45
2022-11-24T01:36:36.782Z,99998.02
2022-11-24T01:39:05.269Z,100002.10
2022-11-24T01:41:34.749Z,100002.59
2022-11-24T01:44:24.204Z,100005.44
2022-11-24T01:47:24.760Z,100004.09
2022-11-24T01:49:58.694Z,100003.21
2022-11-24T01:52:37.885Z,100002.54
2022-11-24T01:55:12.973Z,100001.61
2022-11-24T01:57:56.481Z,100003.60
2022-11-24T02:00:24.593Z,100004.48
2022-11-24T02:02:53.613Z,100005.17
2022-11-24T02:05:30.157Z,100005.67
2022-11-24T02:08:01.671Z,100009.91
2022-11-24T02:10:29.844Z,100011.73
2022-11-24T02:13:00.201Z,100008.23
2022-11-24T02:15:28.678Z,100009.08
2022-11-24T02:17:59.276Z,100011.39
2022-11-24T02:20:27.495Z,100011.52
2022-11-24T02:23:04.393Z,100012.07
2022-11-24T02:26:12.045Z,100008.41
2022-11-24T02:28:40.262Z,100009.56
2022-11-24T02:31:08.821Z,100010.73
2022-11-24T02:33:37.611Z,100006.73
2022-11-24T02:36:05.936Z,100006.96
2022-11-24T02:38:35.290Z,100004.72
2022-11-24T02:41:09.032Z,100005.64
2022-11-24T02:43:45.203Z,100007.17
2022-11-24T02:46:13.111Z,100008.33
2022-11-24T02:48:40.987Z,100012.26
2022-11-24T02:51:09.284Z,100011.23
2022-11-24T02:53:37.125Z,100009.92
2022-11-24T02:56:05.597Z,100011.52
2022-11-24T02:58:33.797Z,100018.56
2022-11-24T03:01:01.715Z,100021.16
2022-11-24T03:03:29.623Z,100021.80
2022-11-24T03:05:57.555Z,100019.05
2022-11-24T03:08:25.556Z,100015.85
2022-11-24T03:10:54.501Z,100020.86
2022-11-24T03:13:22.421Z,100018.00
2022-11-24T03:15:50.369Z,100017.27
2022-11-24T03:18:18.274Z,100014.02
2022-11-24T03:20:46.162Z,100015.71
2022-11-24T03:23:14.106Z,100013.42
2022-11-24T03:25:41.964Z,100015.36
2022-11-24T03:28:09.843Z,100018.34
2022-11-24T03:30:37.709Z,100015.79
2022-11-24T03:33:07.156Z,100018.97
2022-11-24T03:35:35.102Z,100019.14
2022-11-24T03:38:02.970Z,100021.21
2022-11-24T03:40:30.862Z,100027.09
2022-11-24T03:42:58.710Z,100020.90
2022-11-24T03:48:16.173Z,100026.48
2022-11-24T03:50:52.523Z,100030.89
2022-11-24T03:53:20.451Z,100035.34
2022-11-24T03:55:48.387Z,100034.17
2022-11-24T03:58:16.281Z,100036.08
2022-11-24T04:00:44.475Z,100038.15
2022-11-24T04:03:12.378Z,100040.19
2022-11-24T04:05:40.471Z,100039.34
2022-11-24T04:08:09.229Z,100034.48
2022-11-24T04:10:39.238Z,100038.53
2022-11-24T04:13:16.840Z,100041.64
2022-11-24T04:15:45.103Z,100042.56
2022-11-24T04:18:13.701Z,100041.20
2022-11-24T04:20:42.749Z,100041.75
2022-11-24T04:23:11.721Z,100048.67
2022-11-24T04:25:41.425Z,100052.53
2022-11-24T04:28:10.297Z,100058.27
2022-11-24T04:30:38.607Z,100061.16
2022-11-24T04:33:06.428Z,100060.77
2022-11-24T04:35:35.430Z,100059.85
2022-11-24T04:38:03.481Z,100059.89
2022-11-24T04:40:31.406Z,100060.76
2022-11-24T04:42:59.274Z,100064.28
2022-11-24T04:45:27.141Z,100067.02
2022-11-24T04:47:54.995Z,100067.01
2022-11-24T04:50:22.886Z,100070.98
2022-11-24T04:52:50.856Z,100072.18
2022-11-24T04:55:18.724Z,100069.94
2022-11-24T04:57:46.725Z,100065.18
2022-11-24T05:00:15.111Z,100063.77
2022-11-24T05:02:43.006Z,100066.92
2022-11-24T05:05:10.939Z,100067.34
2022-11-24T05:07:38.839Z,100068.53
2022-11-24T05:10:26.445Z,100069.56
2022-11-24T05:12:57.112Z,100074.16
2022-11-24T05:15:26.113Z,100077.86
2022-11-24T05:17:54.239Z,100082.45
2022-11-24T05:20:22.452Z,100084.09
2022-11-24T05:22:50.743Z,100083.96
2022-11-24T05:25:18.714Z,100082.96
2022-11-24T05:27:46.692Z,100079.65
2022-11-24T05:30:14.666Z,100079.01
2022-11-24T05:32:42.597Z,100082.80
2022-11-24T05:35:10.953Z,100087.78
2022-11-24T05:37:38.926Z,100092.02
2022-11-24T05:40:07.670Z,100094.88
2022-11-24T05:42:46.590Z,100094.90
2022-11-24T05:45:19.297Z,100096.34
2022-11-24T05:47:49.419Z,100101.89
2022-11-24T05:50:20.150Z,100103.48
2022-11-24T05:52:49.708Z,100106.97
2022-11-24T05:55:19.435Z,100106.02
2022-11-24T05:57:47.782Z,100105.76
2022-11-24T06:00:18.216Z,100109.86
2022-11-24T06:02:46.216Z,100106.16
2022-11-24T06:05:14.311Z,100108.82
2022-11-24T06:07:42.314Z,100111.21
2022-11-24T06:10:10.403Z,100114.30
2022-11-24T06:12:38.241Z,100116.06
2022-11-24T06:15:06.838Z,100119.92
2022-11-24T06:17:35.069Z,100121.20
2022-11-24T06:20:03.982Z,100124.76
2022-11-24T06:22:32.240Z,100125.54
2022-11-24T06:25:00.083Z,100129.26
2022-11-24T06:27:28.026Z,100133.26
2022-11-24T06:29:56.072Z,100135.55
2022-11-24T06:32:24.231Z,100138.93
2022-11-24T06:34:52.091Z,100143.89
2022-11-24T06:37:20.023Z,100152.17
2022-11-24T06:39:49.264Z,100151.90
2022-11-24T06:42:18.904Z,100151.27
2022-11-24T06:44:47.482Z,100156.42
2022-11-24T06:47:15.548Z,100163.25
2022-11-24T06:49:43.882Z,100165.50
2022-11-24T06:52:11.821Z,100171.83
2022-11-24T06:54:39.882Z,100169.52
2022-11-24T06:57:07.768Z,100168.34
2022-11-24T06:59:35.714Z,100178.39
2022-11-24T07:02:03.637Z,100179.58
2022-11-24T07:04:31.552Z,100182.58
2022-11-24T07:06:59.448Z,100183.98
2022-11-24T07:09:27.294Z,100181.89
2022-11-24T07:11:56.155Z,100182.36
2022-11-24T07:14:24.273Z,100185.34
2022-11-24T07:16:52.145Z,100186.56
2022-11-24T07:19:24.634Z,100190.98
2022-11-24T07:21:52.985Z,100191.52
2022-11-24T07:24:20.859Z,100191.36
2022-11-24T07:26:48.730Z,100191.83
2022-11-24T07:29:16.698Z,100192.20
2022-11-24T07:31:45.938Z,100196.02
2022-11-24T07:34:14.727Z,100194.33
2022-11-24T07:36:43.194Z,100197.38
2022-11-24T07:39:11.176Z,100200.67
2022-11-24T07:41:39.385Z,100208.17
2022-11-24T07:44:07.301Z,100208.29
2022-11-24T07:46:35.146Z,100208.84
2022-11-24T07:49:03.342Z,100207.00
2022-11-24T07:51:31.281Z,100204.56
2022-11-24T07:53:59.091Z,100198.70
2022-11-24T07:56:26.978Z,100201.98
2022-11-24T07:58:55.218Z,100203.64
2022-11-24T08:01:23.143Z,100205.86
2022-11-24T08:03:51.108Z,100202.73
2022-11-24T08:06:26.085Z,100201.70
2022-11-24T08:08:57.966Z,100202.98
2022-11-24T08:11:26.392Z,100206.76
2022-11-24T08:13:54.549Z,100205.63
2022-11-24T08:16:22.755Z,100207.23
2022-11-24T08:18:53.839Z,100211.13
2022-11-24T08:21:23.528Z,100213.38
2022-11-24T08:23:56.958Z,100214.41
2022-11-24T08:26:25.835Z,100217.98
2022-11-24T08:28:59.297Z,100219.28
2022-11-24T08:31:33.923Z,100222.14
2022-11-24T08:34:03.878Z,100227.46
2022-11-24T08:36:32.776Z,100236.40
2022-11-24T08:39:01.887Z,100234.79
2022-11-24T08:41:30.897Z,100231.88
2022-11-24T08:43:58.908Z,100232.58
2022-11-24T08:46:26.954Z,100228.21
2022-11-24T08:48:55.218Z,100229.55
2022-11-24T08:51:26.437Z,100230.52
2022-11-24T08:54:00.153Z,100231.02
2022-11-24T08:56:31.410Z,100232.63
2022-11-24T08:59:00.553Z,100230.43
2022-11-24T09:01:29.236Z,100235.64
2022-11-24T09:03:57.681Z,100232.50
2022-11-24T09:06:30.883Z,100233.04
2022-11-24T09:09:00.023Z,100235.83
2022-11-24T09:11:28.560Z,100237.11
2022-11-24T09:13:56.635Z,100241.27
2022-11-24T09:16:28.702Z,100245.48
2022-11-24T09:19:04.442Z,100243.60
2022-11-24T09:21:37.713Z,100240.16
2022-11-24T09:24:08.022Z,100236.73
2022-11-24T09:26:43.082Z,100237.41
2022-11-24T09:29:14.261Z,100236.45
2022-11-24T09:31:42.214Z,100236.09
2022-11-24T09:34:15.425Z,100239.52
2022-11-24T09:36:43.429Z,100242.07
2022-11-24T09:39:11.854Z,100243.07
2022-11-24T09:41:46.310Z,100246.36
2022-11-24T09:44:42.678Z,100248.33
2022-11-24T09:47:20.671Z,100257.10
2022-11-24T09:50:18.281Z,100256.29
2022-11-24T09:53:14.780Z,100259.27
2022-11-24T09:55:58.496Z,100263.70
2022-11-24T09:58:36.918Z,100265.15
2022-11-24T10:01:15.590Z,100261.73
2022-11-24T10:03:49.386Z,100261.60
2022-11-24T10:07:02.971Z,100262.27
2022-11-24T10:10:00.177Z,100260.39
2022-11-24T10:13:19.348Z,100264.14
2022-11-24T10:16:16.307Z,100261.77
2022-11-24T10:19:36.954Z,100268.42
2022-11-24T10:22:14.211Z,100267.70
2022-11-24T10:25:13.780Z,100269.95
2022-11-24T10:27:47.233Z,100268.92
2022-11-24T10:30:21.611Z,100266.66
2022-11-24T10:32:57.541Z,100268.70
2022-11-24T10:35:45.382Z,100271.73
2022-11-24T10:38:19.698Z,100276.39
2022-11-24T10:40:59.470Z,100275.32
2022-11-24T10:43:29.281Z,100275.96
2022-11-24T10:46:24.995Z,100278.05
2022-11-24T10:49:03.821Z,100275.63
2022-11-24T10:51:44.050Z,100276.79
2022-11-24T10:54:20.832Z,100273.70
2022-11-24T10:56:51.927Z,100272.26
2022-11-24T10:59:37.548Z,100266.20
2022-11-24T11:02:34.953Z,100262.79
2022-11-24T11:05:35.053Z,100259.77
2022-11-24T11:08:28.042Z,100259.83
2022-11-24T11:11:26.967Z,100259.13
2022-11-24T11:14:04.420Z,100259.14
2022-11-24T11:16:49.158Z,100262.92
2022-11-24T11:19:49.512Z,100265.20
2022-11-24T11:22:30.730Z,100266.17
2022-11-24T11:25:35.456Z,100260.90
2022-11-24T11:28:28.607Z,100260.35
2022-11-24T11:31:22.788Z,100265.65
2022-11-24T11:34:21.826Z,100269.66
2022-11-24T11:36:56.243Z,100273.58
2022-11-24T11:39:35.562Z,100274.92
2022-11-24T11:45:31.861Z,100272.35
2022-11-24T11:48:03.044Z,100274.95
2022-11-24T11:51:22.681Z,100271.36
2022-11-24T11:53:59.868Z,100267.39
2022-11-24T11:56:36.138Z,100271.48
2022-11-24T11:59:47.335Z,100269.91
2022-11-24T12:03:18.918Z,100272.40
2022-11-24T12:06:24.832Z,100274.23
2022-11-24T12:09:21.731Z,100277.97
2022-11-24T12:12:21.209Z,100279.02
2022-11-24T12:15:14.615Z,100281.21
2022-11-24T12:18:33.074Z,100282.66
2022-11-24T12:21:21.356Z,100283.16
2022-11-24T12:24:21.863Z,100283.53
2022-11-24T12:26:58.982Z,100285.68
2022-11-24T12:29:54.103Z,100287.39
2022-11-24T12:33:00.410Z,100287.00
2022-11-24T12:35:52.185Z,100291.09
2022-11-24T12:38:39.695Z,100286.80
2022-11-24T12:41:41.185Z,100288.44
2022-11-24T12:44:38.237Z,100290.34
2022-11-24T12:47:21.866Z,100289.68
2022-11-24T12:50:14.029Z,100293.05
2022-11-24T12:52:58.494Z,100289.81
2022-11-24T12:55:30.097Z,100286.48
2022-11-24T12:58:24.045Z,100285.92
2022-11-24T13:01:38.451Z,100283.79
2022-11-24T13:04:58.947Z,100278.44
2022-11-24T13:07:46.927Z,100282.23
2022-11-24T13:10:53.514Z,100286.68
2022-11-24T13:13:15.859Z,100291.15
2022-11-24T13:16:07.128Z,100292.05
2022-11-24T13:18:52.467Z,100291.24
2022-11-24T13:21:51.916Z,100293.43
2022-11-24T13:24:36.892Z,100302.05
2022-11-24T13:27:19.633Z,100303.49
2022-11-24T13:29:50.957Z,100301.58
2022-11-24T13:32:19.319Z,100300.84
2022-11-24T13:34:54.853Z,100303.33
2022-11-24T13:37:31.821Z,100303.01
2022-11-24T13:40:23.840Z,100305.49
2022-11-24T13:42:54.551Z,100300.48
2022-11-24T13:45:54.024Z,100298.86
2022-11-24T13:48:24.767Z,100303.54
2022-11-24T13:50:58.797Z,100307.27
2022-11-24T13:53:47.513Z,100307.48
2022-11-24T13:56:15.305Z,100312.29
2022-11-24T13:58:50.490Z,100312.66
2022-11-24T14:01:23.844Z,100313.64
2022-11-24T14:04:33.338Z,100312.23
2022-11-24T14:07:10.974Z,100319.83
2022-11-24T14:09:50.522Z,100323.23
2022-11-24T14:12:22.466Z,100327.41
2022-11-24T14:14:55.517Z,100334.65
2022-11-24T14:17:28.636Z,100328.22
2022-11-24T14:19:58.241Z,100341.48
2022-11-24T14:22:41.225Z,100343.37
2022-11-24T14:25:29.800Z,100344.38
2022-11-24T14:27:59.650Z,100342.88
2022-11-24T14:30:27.604Z,100344.57
2022-11-24T14:33:01.026Z,100347.23
2022-11-24T14:35:32.703Z,100345.11
2022-11-24T14:38:06.044Z,100345.10
2022-11-24T14:40:55.592Z,100344.88
2022-11-24T14:43:32.108Z,100347.86
2022-11-24T14:46:09.307Z,100350.86
2022-11-24T14:48:51.451Z,100350.13
2022-11-24T14:51:26.155Z,100348.74
2022-11-24T14:53:59.745Z,100352.27
2022-11-24T14:56:38.999Z,100355.28
2022-11-24T14:59:26.394Z,100357.48
2022-11-24T15:01:54.812Z,100356.61
2022-11-24T15:05:00.842Z,100359.60
2022-11-24T15:07:19.269Z,100356.55
2022-11-24T15:09:47.143Z,100363.67
2022-11-24T15:12:28.683Z,100364.93
2022-11-24T15:15:04.068Z,100364.21
2022-11-24T15:17:32.753Z,100367.67
2022-11-24T15:20:09.288Z,100372.52
2022-11-24T15:22:42.113Z,100370.54
2022-11-24T15:25:33.539Z,100371.70
2022-11-24T15:28:01.615Z,100372.14
2022-11-24T15:30:30.595Z,100374.77
2022-11-24T15:32:59.778Z,100383.60
2022-11-24T15:35:32.564Z,100387.35
2022-11-24T15:38:00.532Z,100387.50
2022-11-24T15:40:28.636Z,100386.64
2022-11-24T15:42:59.662Z,100387.97
2022-11-24T15:45:33.944Z,100387.70
2022-11-24T15:48:01.977Z,100387.74
2022-11-24T15:50:29.949Z,100396.05
2022-11-24T15:52:58.016Z,100401.49
2022-11-24T15:55:26.088Z,100400.84
2022-11-24T15:57:54.062Z,100406.11
2022-11-24T16:00:23.558Z,100406.20
2022-11-24T16:02:51.549Z,100409.25
2022-11-24T16:05:19.546Z,100407.65
2022-11-24T16:07:47.496Z,100406.64
2022-11-24T16:10:43.081Z,100407.40
2022-11-24T16:13:12.066Z,100410.39
2022-11-24T16:15:40.008Z,100409.19
2022-11-24T16:18:07.878Z,100414.35
2022-11-24T16:20:36.195Z,100415.69
2022-11-24T16:23:05.796Z,100424.81
2022-11-24T16:25:33.794Z,100423.89
2022-11-24T16:28:02.379Z,100421.36
2022-11-24T16:30:30.247Z,100429.08
2022-11-24T16:32:58.076Z,100429.12
2022-11-24T16:35:26.239Z,100433.82
2022-11-24T16:37:54.122Z,100437.51
2022-11-24T16:40:26.717Z,100439.72
2022-11-24T16:42:56.128Z,100443.78
2022-11-24T16:45:25.744Z,100442.41
2022-11-24T16:47:54.114Z,100446.42
2022-11-24T16:50:22.097Z,100437.18
2022-11-24T16:52:50.059Z,100445.86
2022-11-24T16:55:18.118Z,100446.21
2022-11-24T16:57:46.921Z,100447.77
2022-11-24T17:00:15.381Z,100455.63
2022-11-24T17:02:43.341Z,100456.00
2022-11-24T17:05:11.413Z,100455.52
2022-11-24T17:07:39.391Z,100454.19
2022-11-24T17:10:08.030Z,100455.93
2022-11-24T17:12:36.752Z,100453.10
2022-11-24T17:18:22.458Z,100461.20
2022-11-24T17:20:41.629Z,100465.29
2022-11-24T17:23:09.564Z,100463.30
2022-11-24T17:25:37.483Z,100466.80
2022-11-24T17:28:05.572Z,100468.50
2022-11-24T17:30:33.626Z,100473.10
2022-11-24T17:33:01.493Z,100477.75
2022-11-24T17:35:29.557Z,100476.71
2022-11-24T17:37:58.088Z,100484.13
2022-11-24T17:40:28.762Z,100487.41
2022-11-24T17:43:01.061Z,100487.13
2022-11-24T17:45:30.456Z,100490.85
2022-11-24T17:48:00.752Z,100493.52
2022-11-24T17:50:28.723Z,100491.09
2022-11-24T17:52:56.690Z,100493.60
2022-11-24T17:55:24.792Z,100499.96
2022-11-24T17:57:52.680Z,100502.23
2022-11-24T18:00:20.918Z,100504.90
2022-11-24T18:02:48.909Z,100500.67
2022-11-24T18:05:17.258Z,100510.16
2022-11-24T18:07:45.238Z,100512.22
2022-11-24T18:10:13.348Z,100518.46
2022-11-24T18:12:41.354Z,100514.52
2022-11-24T18:15:09.883Z,100516.52
2022-11-24T18:17:39.634Z,100515.04
2022-11-24T18:20:08.434Z,100516.70
2022-11-24T18:23:03.935Z,100518.95
2022-11-24T18:25:24.474Z,100516.36
2022-11-24T18:27:52.361Z,100515.81
2022-11-24T18:30:21.086Z,100517.84
2022-11-24T18:32:49.016Z,100519.89
2022-11-24T18:35:16.928Z,100518.77
2022-11-24T18:37:44.765Z,100520.50
2022-11-24T18:40:12.928Z,100521.39
2022-11-24T18:42:40.867Z,100519.70
2022-11-24T18:45:09.300Z,100516.90
2022-11-24T18:47:37.262Z,100516.48
2022-11-24T18:50:06.434Z,100518.86
2022-11-24T18:52:34.313Z,100517.67
2022-11-24T18:55:03.951Z,100518.79
2022-11-24T18:57:31.865Z,100514.65
2022-11-24T18:59:59.929Z,100515.84
2022-11-24T19:02:28.035Z,100515.36
2022-11-24T19:04:56.048Z,100522.66
2022-11-24T19:07:23.952Z,100524.00
2022-11-24T19:09:51.985Z,100520.09
2022-11-24T19:12:19.964Z,100522.66
2022-11-24T19:14:47.922Z,100520.53
2022-11-24T19:17:15.922Z,100522.07
2022-11-24T19:19:43.840Z,100524.64
2022-11-24T19:22:13.169Z,100527.23
2022-11-24T19:24:41.702Z,100525.88
2022-11-24T19:27:10.646Z,100528.38
2022-11-24T19:29:42.935Z,100529.55
2022-11-24T19:32:11.284Z,100532.19
2022-11-24T19:34:39.555Z,100530.52
2022-11-24T19:37:07.413Z,100528.35
2022-11-24T19:39:35.962Z,100532.62
2022-11-24T19:42:04.724Z,100528.70
2022-11-24T19:44:32.835Z,100527.30
2022-11-24T19:47:01.019Z,100530.89
2022-11-24T19:49:28.999Z,100532.17
2022-11-24T19:51:56.882Z,100531.08
2022-11-24T19:54:24.765Z,100536.51
2022-11-24T19:56:53.250Z,100535.85
2022-11-24T19:59:23.483Z,100535.04
2022-11-24T20:01:51.628Z,100536.41
2022-11-24T20:04:20.382Z,100537.61
2022-11-24T20:06:48.298Z,100537.95
2022-11-24T20:09:17.937Z,100543.13
2022-11-24T20:11:46.511Z,100542.19
2022-11-24T20:14:16.418Z,100549.05
2022-11-24T20:16:46.920Z,100555.55
2022-11-24T20:19:17.054Z,100559.80
2022-11-24T20:21:47.668Z,100561.66
2022-11-24T20:24:22.304Z,100563.38
2022-11-24T20:26:58.033Z,100561.56
2022-11-24T20:29:28.206Z,100568.45
2022-11-24T20:31:56.660Z,100568.30
2022-11-24T20:34:26.436Z,100569.74
2022-11-24T20:36:54.381Z,100575.37
2022-11-24T20:39:26.276Z,100578.47
2022-11-24T20:41:55.752Z,100581.55
2022-11-24T20:44:27.311Z,100579.50
2022-11-24T20:46:57.296Z,100582.55
2022-11-24T20:49:26.278Z,100578.77
2022-11-24T20:51:55.287Z,100578.38
2022-11-24T20:54:23.808Z,100579.29
2022-11-24T20:56:51.922Z,100573.06
2022-11-24T20:59:23.743Z,100586.21
2022-11-24T21:01:55.094Z,100584.57
2022-11-24T21:04:26.646Z,100581.59
2022-11-24T21:06:55.410Z,100590.64
2022-11-24T21:09:24.722Z,100592.95
2022-11-24T21:11:53.207Z,100590.83
2022-11-24T21:14:21.069Z,100591.07
2022-11-24T21:16:49.008Z,100590.84
2022-11-24T21:19:20.237Z,100588.57
2022-11-24T21:21:48.772Z,100590.95
2022-11-24T21:24:21.468Z,100587.05
2022-11-24T21:26:51.778Z,100585.19
2022-11-24T21:29:23.187Z,100587.67
2022-11-24T21:31:51.648Z,100589.94
2022-11-24T21:34:19.924Z,100586.56
2022-11-24T21:36:49.118Z,100585.45
2022-11-24T21:39:17.498Z,100588.30
2022-11-24T21:41:45.483Z,100594.75
2022-11-24T21:44:14.013Z,100596.23
2022-11-24T21:46:48.249Z,100599.80
2022-11-24T21:49:20.623Z,100595.65
2022-11-24T21:51:54.964Z,100595.20
2022-11-24T21:54:23.320Z,100596.43
2022-11-24T21:56:52.546Z,100600.19
2022-11-24T21:59:21.597Z,100602.95
2022-11-24T22:01:49.845Z,100607.27
2022-11-24T22:04:17.833Z,100607.69
2022-11-24T22:06:45.722Z,100611.67
2022-11-24T22:09:17.701Z,100613.83
2022-11-24T22:11:51.975Z,100617.42
2022-11-24T22:14:19.914Z,100612.16
2022-11-24T22:16:47.930Z,100616.04
2022-11-24T22:19:15.864Z,100615.11
2022-11-24T22:21:44.098Z,100613.02
2022-11-24T22:24:12.097Z,100611.75
2022-11-24T22:26:40.198Z,100617.20
2022-11-24T22:29:08.385Z,100618.52
2022-11-24T22:31:36.383Z,100622.54
2022-11-24T22:34:04.849Z,100622.34
2022-11-24T22:36:32.925Z,100621.39
2022-11-24T22:39:04.123Z,100621.20
2022-11-24T22:41:34.795Z,100626.66
2022-11-24T22:44:02.898Z,100629.66
2022-11-24T22:46:32.412Z,100629.45
2022-11-24T22:49:01.885Z,100624.12
2022-11-24T22:51:34.786Z,100623.45
2022-11-24T22:54:04.400Z,100625.73
2022-11-24T22:56:33.922Z,100629.31
2022-11-24T22:59:04.382Z,100630.86
2022-11-24T23:01:33.792Z,100632.26
2022-11-24T23:04:03.839Z,100629.11
2022-11-24T23:06:33.677Z,100629.77
2022-11-24T23:09:04.945Z,100631.92
2022-11-24T23:11:38.767Z,100633.98
2022-11-24T23:14:13.343Z,100635.78
2022-11-24T23:16:42.489Z,100634.86
2022-11-24T23:19:10.512Z,100633.67
2022-11-24T23:21:39.018Z,100629.53
2022-11-24T23:24:08.765Z,100630.32
2022-11-24T23:26:40.546Z,100631.52
2022-11-24T23:29:11.041Z,100628.77
2022-11-24T23:31:41.954Z,100633.31
2022-11-24T23:34:10.098Z,100637.00
2022-11-24T23:36:38.415Z,100634.21
2022-11-24T23:39:12.005Z,100638.02
2022-11-24T23:41:41.035Z,100640.77
2022-11-24T23:44:09.079Z,100644.65
2022-11-24T23:46:36.970Z,100637.17
2022-11-24T23:49:04.957Z,100642.98
2022-11-24T23:51:33.817Z,100650.21
2022-11-24T23:54:02.062Z,100649.00
2022-11-24T23:56:33.051Z,100653.39
2022-11-24T23:59:04.429Z,100653.23
